Observation data for Graham on 01/19/2019      Previous  Date  Next       Current Mesonet Observations  Soil Data  Daily Summary Page  Observations in Plain Language
KGHS 190600Z 34023G34KT 03/M02 A3003 RMK A01 T00341023  RH  067%=      5-min Rain = 0
KGHS 190605Z 34023G32KT 03/M02 A3003 RMK A01 T00331022  RH  068%=      5-min Rain = 0
KGHS 190610Z 34028G36KT 03/M02 A3003 RMK A01 T00321022  RH  068%=      5-min Rain = 0
KGHS 190615Z 34025G37KT 03/M02 A3003 RMK A01 T00321023  RH  068%=      5-min Rain = 0
KGHS 190620Z 34030G41KT 03/M03 A3003 RMK A01 T00321025  RH  067%=      5-min Rain = 0
KGHS 190625Z 34028G36KT 03/M02 A3004 RMK A01 T00311024  RH  068%=      5-min Rain = 0
KGHS 190630Z 34035G42KT 03/M03 A3003 RMK A01 T00291026  RH  067%=      5-min Rain = 0
KGHS 190635Z 35034G51KT 03/M02 A3003 RMK A01 T00261022  RH  071%=      5-min Rain = 0
KGHS 190640Z 34036G44KT 02/M02 A3004 RMK A01 T00201017  RH  077%=      5-min Rain = 0
KGHS 190645Z 34032G42KT 02/M02 A3005 RMK A01 T00161015  RH  081%=      5-min Rain = 0
KGHS 190650Z 34027G36KT 02/M02 A3005 RMK A01 T00151016  RH  081%=      5-min Rain = 0
KGHS 190655Z 34032G42KT 02/M02 A3005 RMK A01 T00151016  RH  081%=      5-min Rain = 0
KGHS 190700Z 34029G36KT 01/M02 A3005 RMK A01 T00141015  RH  082%=      5-min Rain = 0
KGHS 190705Z 34028G35KT 01/M01 A3006 RMK A01 T00111012  RH  085%=      5-min Rain = 0
KGHS 190710Z 34023G33KT 01/M01 A3006 RMK A01 T00081009  RH  089%=      5-min Rain = 0
KGHS 190715Z 33019G25KT 01/M01 A3007 RMK A01 T00071008  RH  091%=      5-min Rain = 0
KGHS 190720Z 33017G25KT 01/M01 A3007 RMK A01 T00071008  RH  090%=      5-min Rain = 0
KGHS 190725Z 33017G22KT 01/M01 A3007 RMK A01 T00081010  RH  089%=      5-min Rain = 0
KGHS 190730Z 33019G27KT 01/M01 A3007 RMK A01 T00091012  RH  087%=      5-min Rain = 0
KGHS 190735Z 33019G26KT 01/M01 A3007 RMK A01 T00111013  RH  085%=      5-min Rain = 0
KGHS 190740Z 33018G24KT 01/M01 A3008 RMK A01 T00121013  RH  084%=      5-min Rain = 0
KGHS 190745Z 32017KT 01/M01 A3008 RMK A01 T00131012  RH  084%=      5-min Rain = 0
KGHS 190750Z 32019G24KT 01/M01 A3008 RMK A01 T00141011  RH  084%=      5-min Rain = 0
KGHS 190755Z 32017G24KT 02/M01 A3009 RMK A01 T00151010  RH  084%=      5-min Rain = 0
KGHS 190800Z 32017G23KT 02/M01 A3009 RMK A01 T00161010  RH  084%=      5-min Rain = 0
KGHS 190805Z 32016G21KT 02/M01 A3009 RMK A01 T00171009  RH  083%=      5-min Rain = 0
KGHS 190810Z 32020G25KT 02/M01 A3009 RMK A01 T00191012  RH  081%=      5-min Rain = 0
KGHS 190815Z 32019G28KT 02/M01 A3009 RMK A01 T00201013  RH  079%=      5-min Rain = 0
KGHS 190820Z 32024G31KT 02/M02 A3009 RMK A01 T00211016  RH  077%=      5-min Rain = 0
KGHS 190825Z 33023G31KT 02/M02 A3009 RMK A01 T00221018  RH  076%=      5-min Rain = 0
KGHS 190830Z 33021G31KT 02/M02 A3009 RMK A01 T00221020  RH  075%=      5-min Rain = 0
KGHS 190835Z 33019G26KT 02/M02 A301 RMK A01 T00211020  RH  075%=      5-min Rain = 0
KGHS 190840Z 33019G24KT 02/M02 A301 RMK A01 T00191022  RH  075%=      5-min Rain = 0
KGHS 190845Z 33019G27KT 02/M02 A301 RMK A01 T00181023  RH  075%=      5-min Rain = 0
KGHS 190850Z 32019G26KT 02/M02 A301 RMK A01 T00171023  RH  075%=      5-min Rain = 0
KGHS 190855Z 32019G27KT 02/M02 A3011 RMK A01 T00161023  RH  076%=      5-min Rain = 0
KGHS 190900Z 32019G27KT 02/M02 A3011 RMK A01 T00151023  RH  076%=      5-min Rain = 0
KGHS 190905Z 32020G29KT 02/M02 A3011 RMK A01 T00151024  RH  076%=      5-min Rain = 0
KGHS 190910Z 32019G24KT 01/M02 A3011 RMK A01 T00141024  RH  077%=      5-min Rain = 0
KGHS 190915Z 32019KT 01/M02 A3012 RMK A01 T00131024  RH  077%=      5-min Rain = 0
KGHS 190920Z 31018G23KT 01/M02 A3012 RMK A01 T00121024  RH  077%=      5-min Rain = 0
KGHS 190925Z 32022G30KT 01/M03 A3012 RMK A01 T00121028  RH  075%=      5-min Rain = 0
KGHS 190930Z 33023G30KT 01/M03 A3012 RMK A01 T00121031  RH  074%=      5-min Rain = 0
KGHS 190935Z 33020G27KT 01/M03 A3013 RMK A01 T00121032  RH  073%=      5-min Rain = 0
KGHS 190940Z 32016G23KT 01/M03 A3013 RMK A01 T00101031  RH  074%=      5-min Rain = 0
KGHS 190945Z 32014G21KT 01/M03 A3013 RMK A01 T00091030  RH  076%=      5-min Rain = 0
KGHS 190950Z 33018G24KT 01/M03 A3014 RMK A01 T00091031  RH  075%=      5-min Rain = 0
KGHS 190955Z 33018G28KT 01/M03 A3014 RMK A01 T00091032  RH  075%=      5-min Rain = 0
KGHS 191000Z 32018G24KT 01/M03 A3014 RMK A01 T00091032  RH  074%=      5-min Rain = 0
KGHS 191005Z 33018G24KT 01/M03 A3014 RMK A01 T00091033  RH  074%=      5-min Rain = 0
KGHS 191010Z 33018G24KT 01/M03 A3014 RMK A01 T00081034  RH  074%=      5-min Rain = 0
KGHS 191015Z 33019G25KT 01/M03 A3015 RMK A01 T00081034  RH  074%=      5-min Rain = 0
KGHS 191020Z 33018G24KT 01/M03 A3015 RMK A01 T00081033  RH  074%=      5-min Rain = 0
KGHS 191025Z 32015G22KT 01/M03 A3015 RMK A01 T00081033  RH  075%=      5-min Rain = 0
KGHS 191030Z 32019G28KT 01/M03 A3016 RMK A01 T00081033  RH  075%=      5-min Rain = 0
KGHS 191035Z 32021G27KT 01/M03 A3016 RMK A01 T00081034  RH  074%=      5-min Rain = 0
KGHS 191040Z 33021G28KT 01/M04 A3015 RMK A01 T00081036  RH  073%=      5-min Rain = 0
KGHS 191045Z 33021G29KT 01/M04 A3016 RMK A01 T00061037  RH  073%=      5-min Rain = 0
KGHS 191050Z 33023G32KT 01/M04 A3016 RMK A01 T00051038  RH  073%=      5-min Rain = 0
KGHS 191055Z 33022G29KT 01/M04 A3016 RMK A01 T00051039  RH  073%=      5-min Rain = 0
KGHS 191100Z 33022G29KT 01/M04 A3017 RMK A01 T00051039  RH  073%=      5-min Rain = 0
KGHS 191105Z 33022G32KT 01/M04 A3017 RMK A01 T00051039  RH  073%=      5-min Rain = 0
KGHS 191110Z 33020G27KT 00/M04 A3017 RMK A01 T00041038  RH  074%=      5-min Rain = 0
KGHS 191115Z 33021G27KT 00/M04 A3018 RMK A01 T00041038  RH  074%=      5-min Rain = 0
KGHS 191120Z 33022G27KT 00/M04 A3018 RMK A01 T00041038  RH  074%=      5-min Rain = 0
KGHS 191125Z 33020G26KT 00/M04 A3018 RMK A01 T00031037  RH  074%=      5-min Rain = 0
KGHS 191130Z 33019G24KT 00/M04 A3018 RMK A01 T00031037  RH  075%=      5-min Rain = 0
KGHS 191135Z 32019G25KT 00/M04 A3018 RMK A01 T00031036  RH  075%=      5-min Rain = 0
KGHS 191140Z 33018G26KT 00/M04 A3018 RMK A01 T00031036  RH  075%=      5-min Rain = 0
KGHS 191145Z 33019G24KT 00/M04 A3018 RMK A01 T00041036  RH  075%=      5-min Rain = 0
KGHS 191150Z 33018KT 00/M04 A3019 RMK A01 T00041035  RH  075%=      5-min Rain = 0
KGHS 191155Z 33016G22KT 00/M04 A3019 RMK A01 T00041035  RH  076%=      5-min Rain = 0
KGHS 191200Z 33016G23KT 00/M04 A3019 RMK A01 T00041035  RH  076%=      5-min Rain = 0
KGHS 191205Z 33018G24KT 00/M03 A3019 RMK A01 T00031034  RH  076%=      5-min Rain = 0
KGHS 191210Z 33017G22KT 00/M03 A3019 RMK A01 T00041034  RH  076%=      5-min Rain = 0
KGHS 191215Z 33018KT 00/M03 A3019 RMK A01 T00031034  RH  076%=      5-min Rain = 0
KGHS 191220Z 33016G21KT 00/M03 A302 RMK A01 T00021034  RH  077%=      5-min Rain = 0
KGHS 191225Z 33015G21KT 00/M03 A302 RMK A01 T00011034  RH  077%=      5-min Rain = 0
KGHS 191230Z 33015G20KT 00/M04 A302 RMK A01 T00011035  RH  078%=      5-min Rain = 0
KGHS 191235Z 33014KT 00/04 A302 RMK A01 T00000-35  RH  078%=      5-min Rain = 0
KGHS 191240Z 33013KT 00/04 A3021 RMK A01 T00-00-35  RH  078%=      5-min Rain = 0
KGHS 191245Z 33013KT M00/M04 A3021 RMK A01 T10011035  RH  078%=      5-min Rain = 0
KGHS 191250Z 33013G18KT M00/M04 A3021 RMK A01 T10011035  RH  078%=      5-min Rain = 0
KGHS 191255Z 33014G19KT M00/M04 A3021 RMK A01 T10011035  RH  079%=      5-min Rain = 0
KGHS 191300Z 33015KT M00/M04 A3021 RMK A01 T10021035  RH  079%=      5-min Rain = 0
KGHS 191305Z 33014KT M00/M04 A3022 RMK A01 T10031036  RH  079%=      5-min Rain = 0
KGHS 191310Z 33013KT M00/M04 A3022 RMK A01 T10041036  RH  079%=      5-min Rain = 0
KGHS 191315Z 33013G18KT M00/M04 A3022 RMK A01 T10041036  RH  080%=      5-min Rain = 0
KGHS 191320Z 33012KT M01/M04 A3022 RMK A01 T10051036  RH  080%=      5-min Rain = 0
KGHS 191325Z 32011G16KT M01/M04 A3023 RMK A01 T10061037  RH  080%=      5-min Rain = 0
KGHS 191330Z 32011KT M01/M04 A3023 RMK A01 T10071037  RH  081%=      5-min Rain = 0
KGHS 191335Z 32010KT M01/M04 A3023 RMK A01 T10081037  RH  081%=      5-min Rain = 0
KGHS 191340Z 32009KT M01/M04 A3023 RMK A01 T10091037  RH  082%=      5-min Rain = 0
KGHS 191345Z 32009KT M01/M04 A3024 RMK A01 T10111037  RH  082%=      5-min Rain = 0
KGHS 191350Z 31008KT M01/M04 A3024 RMK A01 T10111037  RH  083%=      5-min Rain = 0
KGHS 191355Z 30007KT M01/M04 A3025 RMK A01 T10121038  RH  083%=      5-min Rain = 0
KGHS 191400Z 30007KT M01/M04 A3025 RMK A01 T10131037  RH  084%=      5-min Rain = 0
KGHS 191405Z 30007KT M01/M04 A3026 RMK A01 T10131037  RH  084%=      5-min Rain = 0
KGHS 191410Z 30007KT M01/M04 A3026 RMK A01 T10121037  RH  084%=      5-min Rain = 0
KGHS 191415Z 31006KT M01/M04 A3026 RMK A01 T10101036  RH  083%=      5-min Rain = 0
KGHS 191420Z 31006KT M01/M04 A3026 RMK A01 T10091035  RH  083%=      5-min Rain = 0
KGHS 191425Z 31006KT M01/M03 A3026 RMK A01 T10071034  RH  082%=      5-min Rain = 0
KGHS 191430Z 31007KT M00/M03 A3026 RMK A01 T10041033  RH  082%=      5-min Rain = 0
KGHS 191435Z 31008KT 00/03 A3027 RMK A01 T00-00-31  RH  080%=      5-min Rain = 0
KGHS 191440Z 31009G14KT 00/M03 A3027 RMK A01 T00041030  RH  079%=      5-min Rain = 0
KGHS 191445Z 31011KT 01/M03 A3027 RMK A01 T00081029  RH  077%=      5-min Rain = 0
KGHS 191450Z 31011KT 01/M03 A3028 RMK A01 T00121029  RH  075%=      5-min Rain = 0
KGHS 191455Z 31011G16KT 02/M03 A3028 RMK A01 T00161028  RH  073%=      5-min Rain = 0
KGHS 191500Z 31010KT 02/M03 A3028 RMK A01 T00191027  RH  072%=      5-min Rain = 0
KGHS 191505Z 31010KT 02/M03 A3029 RMK A01 T00201027  RH  071%=      5-min Rain = 0
KGHS 191510Z 32010KT 02/M03 A3029 RMK A01 T00221027  RH  071%=      5-min Rain = 0
KGHS 191515Z 32009KT 02/M03 A3029 RMK A01 T00231025  RH  071%=      5-min Rain = 0
KGHS 191520Z 33011KT 03/M03 A303 RMK A01 T00251025  RH  070%=      5-min Rain = 0
KGHS 191525Z 32011KT 03/M02 A303 RMK A01 T00281024  RH  069%=      5-min Rain = 0
KGHS 191530Z 33013G20KT 03/M02 A303 RMK A01 T00321024  RH  067%=      5-min Rain = 0
KGHS 191535Z 33017G23KT 04/M03 A303 RMK A01 T00361027  RH  063%=      5-min Rain = 0
KGHS 191540Z 33018KT 04/M03 A303 RMK A01 T00391027  RH  062%=      5-min Rain = 0
KGHS 191545Z 33018G25KT 04/M03 A3031 RMK A01 T00421027  RH  061%=      5-min Rain = 0
KGHS 191550Z 33020G25KT 04/M03 A3031 RMK A01 T00441028  RH  060%=      5-min Rain = 0
KGHS 191555Z 33018G25KT 05/M03 A3031 RMK A01 T00461027  RH  059%=      5-min Rain = 0
KGHS 191600Z 34019G26KT 05/M03 A3031 RMK A01 T00491028  RH  058%=      5-min Rain = 0
KGHS 191605Z 34021G26KT 05/M03 A3031 RMK A01 T00491032  RH  056%=      5-min Rain = 0
KGHS 191610Z 35019G28KT 05/M03 A3031 RMK A01 T00511031  RH  056%=      5-min Rain = 0
KGHS 191615Z 35019G26KT 05/M03 A3031 RMK A01 T00541031  RH  055%=      5-min Rain = 0
KGHS 191620Z 35020G26KT 06/M03 A3031 RMK A01 T00551031  RH  054%=      5-min Rain = 0
KGHS 191625Z 35021G27KT 06/M03 A3031 RMK A01 T00551031  RH  054%=      5-min Rain = 0
KGHS 191630Z 34019G25KT 06/M03 A3031 RMK A01 T00551030  RH  054%=      5-min Rain = 0
KGHS 191635Z 35019G26KT 06/M03 A3032 RMK A01 T00571030  RH  054%=      5-min Rain = 0
KGHS 191640Z 35019G24KT 06/M03 A3032 RMK A01 T00581029  RH  054%=      5-min Rain = 0
KGHS 191645Z 34021G26KT 06/M03 A3032 RMK A01 T00601030  RH  053%=      5-min Rain = 0
KGHS 191650Z 35019G26KT 06/M03 A3032 RMK A01 T00611029  RH  053%=      5-min Rain = 0
KGHS 191655Z 35023G28KT 06/M03 A3031 RMK A01 T00621032  RH  051%=      5-min Rain = 0
KGHS 191700Z 35020G26KT 06/M03 A3031 RMK A01 T00641032  RH  051%=      5-min Rain = 0
KGHS 191705Z 35020G26KT 07/M03 A3031 RMK A01 T00661031  RH  050%=      5-min Rain = 0
KGHS 191710Z 35018G24KT 07/M03 A3031 RMK A01 T00671029  RH  050%=      5-min Rain = 0
KGHS 191715Z 35021G26KT 07/M03 A3031 RMK A01 T00681031  RH  049%=      5-min Rain = 0
KGHS 191720Z 35019G26KT 07/M03 A3031 RMK A01 T00691031  RH  049%=      5-min Rain = 0
KGHS 191725Z 35019G25KT 07/M03 A3031 RMK A01 T00711029  RH  049%=      5-min Rain = 0
KGHS 191730Z 34020G26KT 07/M03 A3032 RMK A01 T00721030  RH  049%=      5-min Rain = 0
KGHS 191735Z 34020G25KT 07/M03 A3032 RMK A01 T00731031  RH  048%=      5-min Rain = 0
KGHS 191740Z 34022KT 07/M03 A3031 RMK A01 T00731034  RH  047%=      5-min Rain = 0
KGHS 191745Z 34016G22KT 08/M03 A3032 RMK A01 T00751029  RH  048%=      5-min Rain = 0
KGHS 191750Z 34019G24KT 08/M03 A3032 RMK A01 T00781030  RH  046%=      5-min Rain = 0
KGHS 191755Z 34019KT 08/M03 A3032 RMK A01 T00771030  RH  047%=      5-min Rain = 0
KGHS 191800Z 35016G23KT 08/M03 A3032 RMK A01 T00791028  RH  047%=      5-min Rain = 0
KGHS 191805Z 35014G21KT 09/M03 A3032 RMK A01 T00851027  RH  046%=      5-min Rain = 0
KGHS 191810Z 35017G24KT 08/M03 A3032 RMK A01 T00841028  RH  045%=      5-min Rain = 0
KGHS 191815Z 35018G25KT 08/M03 A3032 RMK A01 T00841028  RH  045%=      5-min Rain = 0
KGHS 191820Z 35018G24KT 08/M03 A3032 RMK A01 T00821029  RH  046%=      5-min Rain = 0
KGHS 191825Z 35015G23KT 09/M03 A3032 RMK A01 T00871026  RH  045%=      5-min Rain = 0
KGHS 191830Z 33020G25KT 09/M03 A3032 RMK A01 T00871030  RH  044%=      5-min Rain = 0
KGHS 191835Z 34018G24KT 09/M03 A3031 RMK A01 T00871030  RH  044%=      5-min Rain = 0
KGHS 191840Z 36013KT 09/M03 A3031 RMK A01 T00911027  RH  044%=      5-min Rain = 0
KGHS 191845Z 35015G20KT 09/M03 A303 RMK A01 T00921027  RH  043%=      5-min Rain = 0
KGHS 191850Z 35017KT 09/M03 A303 RMK A01 T00941029  RH  042%=      5-min Rain = 0
KGHS 191855Z 35015G20KT 10/M03 A3029 RMK A01 T00961028  RH  042%=      5-min Rain = 0
KGHS 191900Z 35017G24KT 10/M03 A3029 RMK A01 T00971029  RH  041%=      5-min Rain = 0
KGHS 191905Z 34015G23KT 10/M03 A3029 RMK A01 T00981027  RH  042%=      5-min Rain = 0
KGHS 191910Z 33019G25KT 10/M03 A3029 RMK A01 T00991029  RH  041%=      5-min Rain = 0
KGHS 191915Z 33020G25KT 10/M03 A3029 RMK A01 T00981029  RH  041%=      5-min Rain = 0
KGHS 191920Z 34020G28KT 10/M03 A3029 RMK A01 T01001031  RH  040%=      5-min Rain = 0
KGHS 191925Z 33019G25KT 10/M03 A3028 RMK A01 T00991031  RH  040%=      5-min Rain = 0
KGHS 191930Z 32019G24KT 10/M03 A3028 RMK A01 T01001028  RH  041%=      5-min Rain = 0
KGHS 191935Z 34019G26KT 10/M03 A3028 RMK A01 T01001028  RH  041%=      5-min Rain = 0
KGHS 191940Z 34017G23KT 10/M03 A3028 RMK A01 T01041026  RH  040%=      5-min Rain = 0
KGHS 191945Z 33017KT 10/M03 A3028 RMK A01 T01041027  RH  040%=      5-min Rain = 0
KGHS 191950Z 32018G24KT 10/M03 A3028 RMK A01 T01041027  RH  040%=      5-min Rain = 0
KGHS 191955Z 33017G26KT 10/M03 A3028 RMK A01 T01041028  RH  040%=      5-min Rain = 0
KGHS 192000Z 33018G26KT 11/M03 A3028 RMK A01 T01061029  RH  039%=      5-min Rain = 0
KGHS 192005Z 34017KT 10/M03 A3027 RMK A01 T01031029  RH  040%=      5-min Rain = 0
KGHS 192010Z 34015G23KT 11/M03 A3027 RMK A01 T01051028  RH  039%=      5-min Rain = 0
KGHS 192015Z 33014G20KT 11/M03 A3027 RMK A01 T01081028  RH  039%=      5-min Rain = 0
KGHS 192020Z 34018G25KT 11/M03 A3026 RMK A01 T01091030  RH  038%=      5-min Rain = 0
KGHS 192025Z 33013KT 11/M03 A3026 RMK A01 T01101029  RH  038%=      5-min Rain = 0
KGHS 192030Z 34018G23KT 11/M03 A3026 RMK A01 T01101030  RH  038%=      5-min Rain = 0
KGHS 192035Z 34017G23KT 11/M03 A3026 RMK A01 T01081031  RH  038%=      5-min Rain = 0
KGHS 192040Z 33014G20KT 11/M03 A3026 RMK A01 T01121029  RH  037%=      5-min Rain = 0
KGHS 192045Z 34018KT 11/M03 A3026 RMK A01 T01131031  RH  037%=      5-min Rain = 0
KGHS 192050Z 34017KT 11/M03 A3026 RMK A01 T01121032  RH  037%=      5-min Rain = 0
KGHS 192055Z 34015G20KT 11/M03 A3025 RMK A01 T01131032  RH  036%=      5-min Rain = 0
KGHS 192100Z 33014G19KT 11/M03 A3026 RMK A01 T01141032  RH  036%=      5-min Rain = 0
KGHS 192105Z 35014G21KT 12/M03 A3025 RMK A01 T01151031  RH  036%=      5-min Rain = 0
KGHS 192110Z 33018G23KT 12/M03 A3025 RMK A01 T01151034  RH  035%=      5-min Rain = 0
KGHS 192115Z 32015KT 12/M04 A3026 RMK A01 T01151035  RH  035%=      5-min Rain = 0
KGHS 192120Z 32015G20KT 12/M03 A3025 RMK A01 T01161034  RH  035%=      5-min Rain = 0
KGHS 192125Z 32014G19KT 12/M03 A3025 RMK A01 T01171034  RH  035%=      5-min Rain = 0
KGHS 192130Z 34014G21KT 12/M04 A3025 RMK A01 T01181035  RH  034%=      5-min Rain = 0
KGHS 192135Z 34017G22KT 12/M03 A3025 RMK A01 T01171034  RH  035%=      5-min Rain = 0
KGHS 192140Z 33013KT 12/M04 A3025 RMK A01 T01171035  RH  035%=      5-min Rain = 0
KGHS 192145Z 34016G22KT 12/M04 A3025 RMK A01 T01191035  RH  034%=      5-min Rain = 0
KGHS 192150Z 34014KT 12/M04 A3025 RMK A01 T01191036  RH  034%=      5-min Rain = 0
KGHS 192155Z 34015G22KT 12/M04 A3025 RMK A01 T01201035  RH  034%=      5-min Rain = 0
KGHS 192200Z 33016G21KT 12/M04 A3025 RMK A01 T01181036  RH  034%=      5-min Rain = 0
KGHS 192205Z 33018KT 12/M04 A3025 RMK A01 T01181038  RH  034%=      5-min Rain = 0
KGHS 192210Z 33014G20KT 12/M04 A3025 RMK A01 T01181036  RH  034%=      5-min Rain = 0
KGHS 192215Z 34015G23KT 12/M04 A3025 RMK A01 T01191037  RH  034%=      5-min Rain = 0
KGHS 192220Z 32013G20KT 12/M04 A3025 RMK A01 T01191038  RH  033%=      5-min Rain = 0
KGHS 192225Z 33013G18KT 12/M04 A3025 RMK A01 T01181038  RH  033%=      5-min Rain = 0
KGHS 192230Z 33015G20KT 12/M04 A3025 RMK A01 T01181039  RH  033%=      5-min Rain = 0
KGHS 192235Z 34015G21KT 12/M04 A3026 RMK A01 T01171040  RH  033%=      5-min Rain = 0
KGHS 192240Z 34012G17KT 12/M04 A3026 RMK A01 T01161040  RH  034%=      5-min Rain = 0
KGHS 192245Z 34015G20KT 12/M04 A3025 RMK A01 T01161040  RH  033%=      5-min Rain = 0
KGHS 192250Z 35013G18KT 12/M04 A3025 RMK A01 T01151041  RH  033%=      5-min Rain = 0
KGHS 192255Z 33014KT 12/M04 A3025 RMK A01 T01151041  RH  033%=      5-min Rain = 0
KGHS 192300Z 34010KT 12/M04 A3026 RMK A01 T01151039  RH  034%=      5-min Rain = 0
KGHS 192305Z 33012KT 12/M04 A3025 RMK A01 T01151040  RH  034%=      5-min Rain = 0
KGHS 192310Z 33012KT 11/M04 A3025 RMK A01 T01131040  RH  034%=      5-min Rain = 0
KGHS 192315Z 34014KT 11/M04 A3025 RMK A01 T01121040  RH  034%=      5-min Rain = 0
KGHS 192320Z 34011G16KT 11/M04 A3025 RMK A01 T01111040  RH  035%=      5-min Rain = 0
KGHS 192325Z 34010KT 11/M04 A3025 RMK A01 T01101040  RH  035%=      5-min Rain = 0
KGHS 192330Z 36011KT 11/M04 A3025 RMK A01 T01081040  RH  035%=      5-min Rain = 0
KGHS 192335Z 36011KT 11/M04 A3025 RMK A01 T01061039  RH  036%=      5-min Rain = 0
KGHS 192340Z 01010KT 10/M04 A3025 RMK A01 T01041039  RH  037%=      5-min Rain = 0
KGHS 192345Z 00008KT 10/M04 A3025 RMK A01 T01021038  RH  037%=      5-min Rain = 0
KGHS 192350Z 36008KT 10/M04 A3025 RMK A01 T00991038  RH  038%=      5-min Rain = 0
KGHS 192355Z 00009KT 10/M04 A3025 RMK A01 T00971038  RH  039%=      5-min Rain = 0
KGHS 200000Z 36008KT 10/M04 A3025 RMK A01 T00951039  RH  039%=      5-min Rain = 0
KGHS 200005Z 00008KT 09/M04 A3026 RMK A01 T00921038  RH  040%=      5-min Rain = 0
KGHS 200010Z 01010KT 09/M04 A3026 RMK A01 T00881038  RH  041%=      5-min Rain = 0
KGHS 200015Z 01010KT 09/M04 A3026 RMK A01 T00851039  RH  041%=      5-min Rain = 0
KGHS 200020Z 02010KT 09/M04 A3026 RMK A01 T00851040  RH  041%=      5-min Rain = 0
KGHS 200025Z 01010KT 08/M04 A3026 RMK A01 T00811040  RH  042%=      5-min Rain = 0
KGHS 200030Z 01011KT 08/M04 A3026 RMK A01 T00771040  RH  044%=      5-min Rain = 0
KGHS 200035Z 01011KT 08/M04 A3026 RMK A01 T00771041  RH  043%=      5-min Rain = 0
KGHS 200040Z 02011KT 08/M04 A3026 RMK A01 T00791042  RH  042%=      5-min Rain = 0
KGHS 200045Z 02012KT 08/M04 A3027 RMK A01 T00761041  RH  044%=      5-min Rain = 0
KGHS 200050Z 02011KT 07/M04 A3027 RMK A01 T00731042  RH  044%=      5-min Rain = 0
KGHS 200055Z 02013KT 07/M04 A3026 RMK A01 T00731042  RH  044%=      5-min Rain = 0
KGHS 200100Z 02014KT 07/M04 A3026 RMK A01 T00731043  RH  044%=      5-min Rain = 0
KGHS 200105Z 02013KT 07/M04 A3027 RMK A01 T00721043  RH  044%=      5-min Rain = 0
KGHS 200110Z 02013KT 07/M04 A3027 RMK A01 T00711043  RH  044%=      5-min Rain = 0
KGHS 200115Z 02013KT 07/M04 A3027 RMK A01 T00671043  RH  045%=      5-min Rain = 0
KGHS 200120Z 03013KT 06/M04 A3027 RMK A01 T00631043  RH  047%=      5-min Rain = 0
KGHS 200125Z 03012KT 06/M04 A3027 RMK A01 T00601043  RH  048%=      5-min Rain = 0
KGHS 200130Z 03012KT 06/M04 A3027 RMK A01 T00571044  RH  048%=      5-min Rain = 0
KGHS 200135Z 03012KT 06/M05 A3027 RMK A01 T00561045  RH  048%=      5-min Rain = 0
KGHS 200140Z 03012KT 06/M05 A3027 RMK A01 T00551046  RH  048%=      5-min Rain = 0
KGHS 200145Z 03013KT 06/M05 A3027 RMK A01 T00551046  RH  048%=      5-min Rain = 0
KGHS 200150Z 03013KT 06/M05 A3027 RMK A01 T00551046  RH  048%=      5-min Rain = 0
KGHS 200155Z 03013KT 06/M05 A3027 RMK A01 T00551046  RH  048%=      5-min Rain = 0
KGHS 200200Z 04013KT 06/M05 A3027 RMK A01 T00571046  RH  048%=      5-min Rain = 0
KGHS 200205Z 04013KT 06/M05 A3027 RMK A01 T00601046  RH  047%=      5-min Rain = 0
KGHS 200210Z 04014KT 06/M05 A3026 RMK A01 T00621046  RH  046%=      5-min Rain = 0
KGHS 200215Z 04012KT 06/M05 A3026 RMK A01 T00621046  RH  046%=      5-min Rain = 0
KGHS 200220Z 04012KT 06/M05 A3025 RMK A01 T00611046  RH  046%=      5-min Rain = 0
KGHS 200225Z 05010KT 06/M05 A3026 RMK A01 T00591046  RH  047%=      5-min Rain = 0
KGHS 200230Z 06007KT 06/M05 A3027 RMK A01 T00581046  RH  047%=      5-min Rain = 0
KGHS 200235Z 05005KT 06/M05 A3027 RMK A01 T00591046  RH  047%=      5-min Rain = 0
KGHS 200240Z 05007KT 06/M05 A3027 RMK A01 T00571046  RH  048%=      5-min Rain = 0
KGHS 200245Z 05007KT 06/M05 A3027 RMK A01 T00551046  RH  048%=      5-min Rain = 0
KGHS 200250Z 05007KT 05/M05 A3028 RMK A01 T00541046  RH  049%=      5-min Rain = 0
KGHS 200255Z 06007KT 05/M05 A3028 RMK A01 T00521046  RH  049%=      5-min Rain = 0
KGHS 200300Z 06007KT 05/M05 A3028 RMK A01 T00491045  RH  050%=      5-min Rain = 0
KGHS 200305Z 06005KT 05/M05 A3028 RMK A01 T00491045  RH  051%=      5-min Rain = 0
KGHS 200310Z 08003KT 05/M05 A3029 RMK A01 T00491045  RH  051%=      5-min Rain = 0
KGHS 200315Z 09004KT 05/M05 A303 RMK A01 T00491045  RH  051%=      5-min Rain = 0
KGHS 200320Z 08005KT 05/M05 A303 RMK A01 T00491045  RH  051%=      5-min Rain = 0
KGHS 200325Z 08006KT 05/M05 A3029 RMK A01 T00471045  RH  052%=      5-min Rain = 0
KGHS 200330Z 08006KT 05/M05 A3029 RMK A01 T00461045  RH  052%=      5-min Rain = 0
KGHS 200335Z 09006KT 05/M04 A3028 RMK A01 T00451044  RH  052%=      5-min Rain = 0
KGHS 200340Z 09007KT 04/M04 A3028 RMK A01 T00441044  RH  053%=      5-min Rain = 0
KGHS 200345Z 09007KT 04/M04 A3028 RMK A01 T00421044  RH  054%=      5-min Rain = 0
KGHS 200350Z 09006KT 04/M04 A3029 RMK A01 T00411044  RH  054%=      5-min Rain = 0
KGHS 200355Z 09006KT 04/M04 A3029 RMK A01 T00411044  RH  054%=      5-min Rain = 0
KGHS 200400Z 10008KT 04/M04 A3029 RMK A01 T00421044  RH  054%=      5-min Rain = 0
KGHS 200405Z 10008KT 04/M04 A3028 RMK A01 T00421044  RH  054%=      5-min Rain = 0
KGHS 200410Z 10008KT 04/M04 A3027 RMK A01 T00411043  RH  055%=      5-min Rain = 0
KGHS 200415Z 10008KT 04/M04 A3027 RMK A01 T00401043  RH  055%=      5-min Rain = 0
KGHS 200420Z 10008KT 04/M04 A3028 RMK A01 T00391043  RH  055%=      5-min Rain = 0
KGHS 200425Z 10007KT 04/M04 A3027 RMK A01 T00391042  RH  056%=      5-min Rain = 0
KGHS 200430Z 12006KT 04/M04 A3028 RMK A01 T00401043  RH  055%=      5-min Rain = 0
KGHS 200435Z 12005KT 04/M04 A3028 RMK A01 T00391043  RH  055%=      5-min Rain = 0
KGHS 200440Z 12006KT 04/M04 A3028 RMK A01 T00381043  RH  056%=      5-min Rain = 0
KGHS 200445Z 13005KT 04/M04 A3029 RMK A01 T00371043  RH  056%=      5-min Rain = 0
KGHS 200450Z 12005KT 03/M04 A3029 RMK A01 T00341043  RH  057%=      5-min Rain = 0
KGHS 200455Z 12006KT 03/M04 A3029 RMK A01 T00331043  RH  057%=      5-min Rain = 0
KGHS 200500Z 12006KT 03/M04 A3029 RMK A01 T00331043  RH  058%=      5-min Rain = 0
KGHS 200505Z 11005KT 03/M04 A303 RMK A01 T00321042  RH  058%=      5-min Rain = 0
KGHS 200510Z 12005KT 03/M04 A3029 RMK A01 T00331042  RH  058%=      5-min Rain = 0
KGHS 200515Z 13005KT 03/M04 A3029 RMK A01 T00311043  RH  059%=      5-min Rain = 0
KGHS 200520Z 13005KT 03/M04 A303 RMK A01 T00301042  RH  059%=      5-min Rain = 0
KGHS 200525Z 15005KT 03/M04 A303 RMK A01 T00291043  RH  059%=      5-min Rain = 0
KGHS 200530Z 14004KT 03/M04 A303 RMK A01 T00271043  RH  060%=      5-min Rain = 0
KGHS 200535Z 13003KT 03/M04 A303 RMK A01 T00281042  RH  060%=      5-min Rain = 0
KGHS 200540Z 13004KT 03/M04 A303 RMK A01 T00291042  RH  060%=      5-min Rain = 0
KGHS 200545Z 12004KT 03/M04 A303 RMK A01 T00291042  RH  060%=      5-min Rain = 0
KGHS 200550Z 12004KT 03/M04 A303 RMK A01 T00291042  RH  060%=      5-min Rain = 0
KGHS 200555Z 13003KT 03/M04 A3031 RMK A01 T00281042  RH  060%=      5-min Rain = 0

Page generated in 0.0095 seconds.